createdAt,value
2018-09-01T00:00:51.090Z,15.9
2018-09-01T00:05:49.979Z,15.9
2018-09-01T00:10:50.104Z,15.8
2018-09-01T00:15:50.272Z,15.8
2018-09-01T00:21:03.032Z,15.9
2018-09-01T00:26:02.696Z,15.8
2018-09-01T00:31:02.840Z,15.6
2018-09-01T00:36:02.904Z,15.7
2018-09-01T00:41:02.762Z,15.5
2018-09-01T00:46:02.752Z,15.5
2018-09-01T00:51:02.900Z,15.3
2018-09-01T00:56:08.070Z,15.4
2018-09-01T01:01:07.995Z,15.4
2018-09-01T01:06:20.117Z,15.3
2018-09-01T01:11:19.815Z,15.3
2018-09-01T01:16:19.872Z,15.3
2018-09-01T01:21:19.616Z,14.8
2018-09-01T01:26:19.798Z,15
2018-09-01T01:31:19.670Z,15.1
2018-09-01T01:36:19.801Z,15.1
2018-09-01T01:41:19.853Z,15
2018-09-01T01:46:19.680Z,15
2018-09-01T01:51:19.695Z,15
2018-09-01T01:56:19.669Z,15
2018-09-01T02:01:19.672Z,15
2018-09-01T02:06:19.707Z,14.9
2018-09-01T02:11:19.942Z,15
2018-09-01T02:16:34.710Z,15
2018-09-01T02:21:34.659Z,14.9
2018-09-01T02:26:34.448Z,14.8
2018-09-01T02:31:34.442Z,14.9
2018-09-01T02:36:34.434Z,14.9
2018-09-01T02:41:34.577Z,14.7
2018-09-01T02:46:34.618Z,14.7
2018-09-01T02:51:34.449Z,14.7
2018-09-01T02:56:34.580Z,14.7
2018-09-01T03:01:46.726Z,14.8
2018-09-01T03:06:46.637Z,14.7
2018-09-01T03:11:46.674Z,14.8
2018-09-01T03:16:46.572Z,14.6
2018-09-01T03:21:46.464Z,14.7
2018-09-01T03:26:46.464Z,14.6
2018-09-01T03:31:46.597Z,14.6
2018-09-01T03:36:46.464Z,14.6
2018-09-01T03:41:46.669Z,14.6
2018-09-01T03:46:46.595Z,14.7
2018-09-01T03:51:46.483Z,14.6
2018-09-01T03:56:46.480Z,14.7
2018-09-01T04:01:47.135Z,14.7
2018-09-01T04:06:47.014Z,14.7
2018-09-01T04:12:00.000Z,14.7
2018-09-01T04:16:59.931Z,14.7
2018-09-01T04:21:59.963Z,14.7
2018-09-01T04:26:59.729Z,14.6
2018-09-01T04:31:59.919Z,14.6
2018-09-01T04:36:59.842Z,14.6
2018-09-01T04:41:59.872Z,14.5
2018-09-01T04:47:00.608Z,14.4
2018-09-01T04:52:00.462Z,14.5
2018-09-01T04:57:13.149Z,14.4
2018-09-01T05:02:13.128Z,14.5
2018-09-01T05:07:12.869Z,14.5
2018-09-01T05:12:13.096Z,14.6
2018-09-01T05:17:13.127Z,14.6
2018-09-01T05:22:12.882Z,14.6
2018-09-01T05:27:13.089Z,14.6
2018-09-01T05:32:13.139Z,14.5
2018-09-01T05:37:13.063Z,14.6
2018-09-01T05:42:13.084Z,14.6
2018-09-01T05:47:13.128Z,14.6
2018-09-01T05:52:13.047Z,14.5
2018-09-01T05:57:13.730Z,14.5
2018-09-01T06:02:13.624Z,14.5
2018-09-01T06:07:26.874Z,14.3
2018-09-01T06:12:26.574Z,14.5
2018-09-01T06:17:26.597Z,14.6
2018-09-01T06:22:26.598Z,14.6
2018-09-01T06:27:26.604Z,14.5
2018-09-01T06:32:26.612Z,14.6
2018-09-01T06:37:26.669Z,14.6
2018-09-01T06:42:26.727Z,14.6
2018-09-01T06:47:26.732Z,14.7
2018-09-01T06:52:38.851Z,14.7
2018-09-01T06:57:38.802Z,14.8
2018-09-01T07:02:38.714Z,14.5
2018-09-01T07:07:38.573Z,14.7
2018-09-01T07:12:38.558Z,14.7
2018-09-01T07:17:38.775Z,14.7
2018-09-01T07:22:38.572Z,14.8
2018-09-01T07:27:38.593Z,14.9
2018-09-01T07:32:38.593Z,14.9
2018-09-01T07:37:49.891Z,14.8
2018-09-01T07:42:49.632Z,14.9
2018-09-01T07:47:49.778Z,14.8
2018-09-01T07:52:49.829Z,14.8
2018-09-01T07:57:49.648Z,14.9
2018-09-01T08:02:49.778Z,15
2018-09-01T08:07:49.793Z,14.9
2018-09-01T08:12:50.398Z,14.9
2018-09-01T08:17:50.290Z,14.9
2018-09-01T08:23:02.907Z,15
2018-09-01T08:28:02.867Z,15
2018-09-01T08:33:02.579Z,15
2018-09-01T08:38:02.586Z,15
2018-09-01T08:43:02.611Z,15
2018-09-01T08:48:02.637Z,15.1
2018-09-01T08:53:02.628Z,15
2018-09-01T08:58:02.650Z,15
2018-09-01T09:03:02.636Z,15
2018-09-01T09:08:13.827Z,15.1
2018-09-01T09:13:13.561Z,15.1
2018-09-01T09:18:13.561Z,15.2
2018-09-01T09:23:13.569Z,15.3
2018-09-01T09:28:13.731Z,15.3
2018-09-01T09:33:13.566Z,15.2
2018-09-01T09:38:13.586Z,15.3
2018-09-01T09:43:13.586Z,15.3
2018-09-01T09:48:13.715Z,15.4
2018-09-01T09:53:13.874Z,15.4
2018-09-01T09:58:13.783Z,15.4
2018-09-01T10:03:13.749Z,15.4
2018-09-01T10:08:15.925Z,15.4
2018-09-01T10:13:15.664Z,15.4
2018-09-01T10:18:28.100Z,15.4
2018-09-01T10:23:27.847Z,15.6
2018-09-01T10:28:27.790Z,15.6
2018-09-01T10:33:27.790Z,15.5
2018-09-01T10:38:27.857Z,15.5
2018-09-01T10:43:27.856Z,15.5
2018-09-01T10:48:27.837Z,15.5
2018-09-01T10:53:29.421Z,15.4
2018-09-01T10:58:29.171Z,15.5
2018-09-01T11:03:42.242Z,15.5
2018-09-01T11:08:41.991Z,15.5
2018-09-01T11:13:42.009Z,15.5
2018-09-01T11:18:42.006Z,15.5
2018-09-01T11:23:42.005Z,15.6
2018-09-01T11:28:42.012Z,15.5
2018-09-01T11:33:42.041Z,15.6
2018-09-01T11:38:41.996Z,15.5
2018-09-01T11:43:41.986Z,15.4
2018-09-01T11:48:42.061Z,15.5
2018-09-01T11:53:42.085Z,15.5
2018-09-01T11:58:42.118Z,15.5
2018-09-01T12:03:42.032Z,15.6
2018-09-01T12:08:42.099Z,15.7
2018-09-01T12:13:54.234Z,15.8
2018-09-01T12:18:53.980Z,15.8
2018-09-01T12:23:53.970Z,15.8
2018-09-01T12:28:54.168Z,15.8
2018-09-01T12:33:53.974Z,15.8
2018-09-01T12:38:53.973Z,15.8
2018-09-01T12:43:53.980Z,15.9
2018-09-01T12:48:54.057Z,15.9
2018-09-01T12:53:53.955Z,16
2018-09-01T12:59:05.309Z,16
2018-09-01T13:04:04.962Z,15.9
2018-09-01T13:09:04.980Z,16
2018-09-01T13:14:04.994Z,16.1
2018-09-01T13:19:04.990Z,16
2018-09-01T13:24:05.075Z,15.9
2018-09-01T13:29:04.994Z,15.8
2018-09-01T13:34:09.207Z,15.7
2018-09-01T13:39:09.702Z,15.8
2018-09-01T13:44:21.661Z,16
2018-09-01T13:49:21.432Z,15.9
2018-09-01T13:54:21.488Z,16.1
2018-09-01T13:59:21.379Z,16
2018-09-01T14:04:21.259Z,16
2018-09-01T14:09:21.266Z,15.9
2018-09-01T14:14:21.321Z,15.8
2018-09-01T14:19:21.561Z,15.9
2018-09-01T14:24:21.768Z,15.7
2018-09-01T14:29:34.116Z,15.7
2018-09-01T14:34:33.694Z,15.7
2018-09-01T14:39:34.423Z,15.8
2018-09-01T14:44:33.733Z,15.7
2018-09-01T14:49:33.661Z,15.7
2018-09-01T14:54:33.940Z,15.7
2018-09-01T14:59:35.015Z,15.7
2018-09-01T15:04:33.755Z,15.7
2018-09-01T15:09:33.732Z,15.6
2018-09-01T15:14:45.692Z,15.6
2018-09-01T15:19:45.421Z,15.7
2018-09-01T15:24:45.396Z,15.6
2018-09-01T15:29:45.510Z,15.7
2018-09-01T15:34:48.577Z,15.6
2018-09-01T15:39:45.543Z,15.7
2018-09-01T15:44:45.529Z,15.7
2018-09-01T15:49:45.531Z,15.7
2018-09-01T15:54:45.542Z,15.7
2018-09-01T15:59:45.859Z,15.6
2018-09-01T16:04:45.524Z,15.6
2018-09-01T16:09:45.724Z,15.6
2018-09-01T16:14:50.209Z,15.6
2018-09-01T16:19:49.372Z,15.6
2018-09-01T16:25:02.297Z,15.6
2018-09-01T16:30:02.028Z,15.6
2018-09-01T16:35:02.016Z,15.6
2018-09-01T16:40:02.024Z,15.5
2018-09-01T16:45:02.099Z,15.5
2018-09-01T16:50:02.717Z,15.5
2018-09-01T16:55:02.660Z,15.5
2018-09-01T17:00:06.427Z,15.4
2018-09-01T17:05:06.126Z,15.4
2018-09-01T17:10:20.347Z,15.4
2018-09-01T17:15:20.165Z,15.2
2018-09-01T17:20:20.073Z,15.3
2018-09-01T17:25:20.128Z,15.3
2018-09-01T17:30:20.107Z,15.3
2018-09-01T17:35:20.075Z,15.3
2018-09-01T17:40:20.074Z,15.3
2018-09-01T17:45:20.125Z,15.2
2018-09-01T17:50:20.038Z,15.2
2018-09-01T17:55:31.446Z,15.2
2018-09-01T18:00:31.153Z,15.2
2018-09-01T18:05:31.149Z,15.2
2018-09-01T18:10:31.134Z,15.1
2018-09-01T18:15:31.148Z,15.1
2018-09-01T18:20:31.192Z,15.1
2018-09-01T18:25:31.160Z,15.1
2018-09-01T18:30:31.177Z,15.1
2018-09-01T18:35:31.163Z,15.1
2018-09-01T18:40:31.171Z,15
2018-09-01T18:45:31.187Z,14.9
2018-09-01T18:50:31.184Z,15
2018-09-01T18:55:31.175Z,14.9
2018-09-01T19:00:31.199Z,14.9
2018-09-01T19:05:43.060Z,14.9
2018-09-01T19:10:42.793Z,14.9
2018-09-01T19:15:42.770Z,14.9
2018-09-01T19:20:42.793Z,14.9
2018-09-01T19:25:43.007Z,14.9
2018-09-01T19:30:42.953Z,14.9
2018-09-01T19:35:42.797Z,14.8
2018-09-01T19:40:44.059Z,14.9
2018-09-01T19:45:43.776Z,14.9
2018-09-01T19:50:56.368Z,14.9
2018-09-01T19:55:56.073Z,14.9
2018-09-01T20:00:56.072Z,14.9
2018-09-01T20:05:56.067Z,14.9
2018-09-01T20:10:56.059Z,14.9
2018-09-01T20:15:56.078Z,14.8
2018-09-01T20:20:56.077Z,14.9
2018-09-01T20:25:56.062Z,14.9
2018-09-01T20:30:56.089Z,14.9
2018-09-01T20:35:57.532Z,14.9
2018-09-01T20:40:57.297Z,14.9
2018-09-01T20:45:57.246Z,14.8
2018-09-01T20:50:57.254Z,14.8
2018-09-01T20:55:57.255Z,14.8
2018-09-01T21:00:57.256Z,14.8
2018-09-01T21:05:57.259Z,14.8
2018-09-01T21:10:57.292Z,14.8
2018-09-01T21:15:57.812Z,14.8
2018-09-01T21:21:08.773Z,14.8
2018-09-01T21:26:08.427Z,14.8
2018-09-01T21:31:08.557Z,14.8
2018-09-01T21:36:08.501Z,14.8
2018-09-01T21:41:08.507Z,14.8
2018-09-01T21:46:08.490Z,14.8
2018-09-01T21:51:08.478Z,14.8
2018-09-01T21:56:10.586Z,14.8
2018-09-01T22:01:10.361Z,14.8
2018-09-01T22:06:22.514Z,14.8
2018-09-01T22:11:22.228Z,14.8
2018-09-01T22:16:22.232Z,14.7
2018-09-01T22:21:22.229Z,14.7
2018-09-01T22:26:22.258Z,14.7
2018-09-01T22:31:22.295Z,14.7
2018-09-01T22:36:22.263Z,14.7
2018-09-01T22:41:22.219Z,14.6
2018-09-01T22:46:22.259Z,14.6
2018-09-01T22:51:33.925Z,14.6
2018-09-01T22:56:33.567Z,14.6
2018-09-01T23:01:33.571Z,14.6
2018-09-01T23:06:33.579Z,14.5
2018-09-01T23:11:33.562Z,14.5
2018-09-01T23:16:33.578Z,14.5
2018-09-01T23:21:33.567Z,14.5
2018-09-01T23:26:38.808Z,14.5
2018-09-01T23:31:38.530Z,14.4
2018-09-01T23:36:50.548Z,14.4
2018-09-01T23:41:50.305Z,14.4
2018-09-01T23:46:50.245Z,14.3
2018-09-01T23:51:50.455Z,14.3
2018-09-01T23:56:50.499Z,14.3
